sensor_id;sensor_type;location;lat;lon;timestamp;P1;durP1;ratioP1;P2;durP2;ratioP2
581;SDS011;277;50.074;8.436;2023-12-07T00:00:52;6.78;;;4.07;;
581;SDS011;277;50.074;8.436;2023-12-07T00:03:20;3.45;;;3.03;;
581;SDS011;277;50.074;8.436;2023-12-07T00:05:49;4.22;;;3.75;;
581;SDS011;277;50.074;8.436;2023-12-07T00:08:17;5.22;;;3.35;;
581;SDS011;277;50.074;8.436;2023-12-07T00:10:45;5.15;;;3.60;;
581;SDS011;277;50.074;8.436;2023-12-07T00:13:12;3.50;;;3.17;;
581;SDS011;277;50.074;8.436;2023-12-07T00:15:40;4.38;;;3.97;;
581;SDS011;277;50.074;8.436;2023-12-07T00:18:08;4.03;;;3.63;;
581;SDS011;277;50.074;8.436;2023-12-07T00:20:37;4.30;;;3.90;;
581;SDS011;277;50.074;8.436;2023-12-07T00:23:06;4.00;;;3.70;;
581;SDS011;277;50.074;8.436;2023-12-07T00:25:34;3.58;;;3.28;;
581;SDS011;277;50.074;8.436;2023-12-07T00:28:02;4.35;;;3.95;;
581;SDS011;277;50.074;8.436;2023-12-07T00:30:31;3.30;;;2.80;;
581;SDS011;277;50.074;8.436;2023-12-07T00:33:00;3.40;;;3.10;;
581;SDS011;277;50.074;8.436;2023-12-07T00:35:28;7.30;;;3.80;;
581;SDS011;277;50.074;8.436;2023-12-07T00:37:56;4.32;;;3.80;;
581;SDS011;277;50.074;8.436;2023-12-07T00:40:25;5.25;;;4.72;;
581;SDS011;277;50.074;8.436;2023-12-07T00:42:53;4.70;;;4.07;;
581;SDS011;277;50.074;8.436;2023-12-07T00:45:21;5.25;;;4.13;;
581;SDS011;277;50.074;8.436;2023-12-07T00:47:49;4.20;;;3.90;;
581;SDS011;277;50.074;8.436;2023-12-07T00:50:17;4.55;;;3.75;;
581;SDS011;277;50.074;8.436;2023-12-07T00:52:45;5.10;;;3.80;;
581;SDS011;277;50.074;8.436;2023-12-07T00:55:13;5.15;;;3.65;;
581;SDS011;277;50.074;8.436;2023-12-07T00:57:42;5.00;;;3.80;;
581;SDS011;277;50.074;8.436;2023-12-07T01:00:10;4.38;;;3.38;;
581;SDS011;277;50.074;8.436;2023-12-07T01:02:39;3.83;;;3.53;;
581;SDS011;277;50.074;8.436;2023-12-07T01:05:07;3.75;;;3.42;;
581;SDS011;277;50.074;8.436;2023-12-07T01:07:36;4.90;;;3.90;;
581;SDS011;277;50.074;8.436;2023-12-07T01:10:05;3.67;;;3.38;;
581;SDS011;277;50.074;8.436;2023-12-07T01:12:33;3.85;;;3.45;;
581;SDS011;277;50.074;8.436;2023-12-07T01:15:03;5.00;;;3.58;;
581;SDS011;277;50.074;8.436;2023-12-07T01:17:32;3.67;;;3.38;;
581;SDS011;277;50.074;8.436;2023-12-07T01:20:00;4.10;;;3.70;;
581;SDS011;277;50.074;8.436;2023-12-07T01:22:30;3.67;;;3.25;;
581;SDS011;277;50.074;8.436;2023-12-07T01:24:58;3.95;;;3.53;;
581;SDS011;277;50.074;8.436;2023-12-07T01:27:26;3.45;;;3.15;;
581;SDS011;277;50.074;8.436;2023-12-07T01:29:54;3.45;;;3.10;;
581;SDS011;277;50.074;8.436;2023-12-07T01:32:23;4.00;;;2.97;;
581;SDS011;277;50.074;8.436;2023-12-07T01:34:51;2.90;;;2.65;;
581;SDS011;277;50.074;8.436;2023-12-07T01:37:19;3.42;;;3.13;;
581;SDS011;277;50.074;8.436;2023-12-07T01:39:47;3.20;;;2.90;;
581;SDS011;277;50.074;8.436;2023-12-07T01:42:15;3.30;;;3.00;;
581;SDS011;277;50.074;8.436;2023-12-07T01:44:43;4.07;;;3.50;;
581;SDS011;277;50.074;8.436;2023-12-07T01:47:11;3.70;;;3.40;;
581;SDS011;277;50.074;8.436;2023-12-07T01:49:41;3.53;;;3.20;;
581;SDS011;277;50.074;8.436;2023-12-07T01:52:09;4.43;;;2.70;;
581;SDS011;277;50.074;8.436;2023-12-07T01:54:38;3.60;;;3.10;;
581;SDS011;277;50.074;8.436;2023-12-07T01:57:06;3.65;;;3.15;;
581;SDS011;277;50.074;8.436;2023-12-07T01:59:34;3.10;;;2.80;;
581;SDS011;277;50.074;8.436;2023-12-07T02:02:03;3.40;;;2.60;;
581;SDS011;277;50.074;8.436;2023-12-07T02:04:31;4.60;;;3.25;;
581;SDS011;277;50.074;8.436;2023-12-07T02:07:00;2.30;;;2.17;;
581;SDS011;277;50.074;8.436;2023-12-07T02:09:30;3.70;;;2.80;;
581;SDS011;277;50.074;8.436;2023-12-07T02:11:58;2.17;;;2.08;;
581;SDS011;277;50.074;8.436;2023-12-07T02:14:26;2.70;;;2.50;;
581;SDS011;277;50.074;8.436;2023-12-07T02:16:55;2.85;;;2.55;;
581;SDS011;277;50.074;8.436;2023-12-07T02:22:24;2.55;;;2.22;;
581;SDS011;277;50.074;8.436;2023-12-07T02:25:03;2.10;;;1.95;;
581;SDS011;277;50.074;8.436;2023-12-07T02:27:38;4.80;;;2.28;;
581;SDS011;277;50.074;8.436;2023-12-07T02:30:07;2.30;;;2.10;;
581;SDS011;277;50.074;8.436;2023-12-07T02:32:36;2.80;;;2.53;;
581;SDS011;277;50.074;8.436;2023-12-07T02:35:05;2.88;;;2.67;;
581;SDS011;277;50.074;8.436;2023-12-07T02:37:35;2.50;;;2.30;;
581;SDS011;277;50.074;8.436;2023-12-07T02:40:08;2.00;;;1.75;;
581;SDS011;277;50.074;8.436;2023-12-07T02:42:39;2.55;;;2.30;;
581;SDS011;277;50.074;8.436;2023-12-07T02:45:09;2.63;;;2.33;;
581;SDS011;277;50.074;8.436;2023-12-07T02:47:38;2.08;;;1.90;;
581;SDS011;277;50.074;8.436;2023-12-07T02:50:07;2.60;;;2.40;;
581;SDS011;277;50.074;8.436;2023-12-07T02:52:35;3.20;;;2.58;;
581;SDS011;277;50.074;8.436;2023-12-07T02:55:04;1.48;;;1.35;;
581;SDS011;277;50.074;8.436;2023-12-07T02:57:32;2.90;;;2.30;;
581;SDS011;277;50.074;8.436;2023-12-07T03:00:02;2.70;;;2.40;;
581;SDS011;277;50.074;8.436;2023-12-07T03:02:33;1.90;;;1.67;;
581;SDS011;277;50.074;8.436;2023-12-07T03:05:01;2.10;;;1.90;;
581;SDS011;277;50.074;8.436;2023-12-07T03:07:29;2.17;;;2.00;;
581;SDS011;277;50.074;8.436;2023-12-07T03:09:57;3.38;;;2.45;;
581;SDS011;277;50.074;8.436;2023-12-07T03:12:25;2.95;;;2.33;;
581;SDS011;277;50.074;8.436;2023-12-07T03:14:53;3.42;;;3.13;;
581;SDS011;277;50.074;8.436;2023-12-07T03:17:22;2.47;;;2.28;;
581;SDS011;277;50.074;8.436;2023-12-07T03:19:50;4.47;;;3.25;;
581;SDS011;277;50.074;8.436;2023-12-07T03:22:18;3.35;;;3.00;;
581;SDS011;277;50.074;8.436;2023-12-07T03:24:49;3.20;;;2.90;;
581;SDS011;277;50.074;8.436;2023-12-07T03:27:18;5.35;;;3.05;;
581;SDS011;277;50.074;8.436;2023-12-07T03:29:47;3.65;;;3.35;;
581;SDS011;277;50.074;8.436;2023-12-07T03:32:14;2.95;;;2.22;;
581;SDS011;277;50.074;8.436;2023-12-07T03:34:44;2.55;;;2.33;;
581;SDS011;277;50.074;8.436;2023-12-07T03:37:12;2.80;;;2.35;;
581;SDS011;277;50.074;8.436;2023-12-07T03:39:40;2.50;;;2.30;;
581;SDS011;277;50.074;8.436;2023-12-07T03:42:08;2.95;;;2.65;;
581;SDS011;277;50.074;8.436;2023-12-07T03:44:55;2.42;;;2.22;;
581;SDS011;277;50.074;8.436;2023-12-07T03:47:23;3.95;;;2.83;;
581;SDS011;277;50.074;8.436;2023-12-07T03:49:53;3.67;;;2.70;;
581;SDS011;277;50.074;8.436;2023-12-07T03:52:21;3.28;;;2.72;;
581;SDS011;277;50.074;8.436;2023-12-07T03:54:49;3.47;;;2.70;;
581;SDS011;277;50.074;8.436;2023-12-07T03:57:17;2.40;;;2.20;;
581;SDS011;277;50.074;8.436;2023-12-07T03:59:45;4.03;;;3.05;;
581;SDS011;277;50.074;8.436;2023-12-07T04:02:13;4.35;;;2.78;;
581;SDS011;277;50.074;8.436;2023-12-07T04:04:41;4.25;;;2.50;;
581;SDS011;277;50.074;8.436;2023-12-07T04:07:10;2.97;;;2.63;;
581;SDS011;277;50.074;8.436;2023-12-07T04:09:38;2.72;;;2.53;;
581;SDS011;277;50.074;8.436;2023-12-07T04:12:06;5.97;;;3.35;;
581;SDS011;277;50.074;8.436;2023-12-07T04:14:34;2.85;;;2.65;;
581;SDS011;277;50.074;8.436;2023-12-07T04:17:02;3.20;;;2.92;;
581;SDS011;277;50.074;8.436;2023-12-07T04:19:30;4.90;;;3.45;;
581;SDS011;277;50.074;8.436;2023-12-07T04:21:58;5.60;;;3.13;;
581;SDS011;277;50.074;8.436;2023-12-07T04:24:27;3.58;;;3.28;;
581;SDS011;277;50.074;8.436;2023-12-07T04:26:55;4.38;;;2.67;;
581;SDS011;277;50.074;8.436;2023-12-07T04:29:23;3.42;;;3.13;;
581;SDS011;277;50.074;8.436;2023-12-07T04:31:51;5.97;;;3.80;;
581;SDS011;277;50.074;8.436;2023-12-07T04:34:19;5.47;;;3.15;;
581;SDS011;277;50.074;8.436;2023-12-07T04:36:47;3.55;;;2.95;;
581;SDS011;277;50.074;8.436;2023-12-07T04:39:16;4.18;;;3.17;;
581;SDS011;277;50.074;8.436;2023-12-07T04:41:45;4.15;;;2.95;;
581;SDS011;277;50.074;8.436;2023-12-07T04:44:13;4.65;;;3.70;;
581;SDS011;277;50.074;8.436;2023-12-07T04:46:41;4.45;;;3.35;;
581;SDS011;277;50.074;8.436;2023-12-07T04:49:09;3.85;;;3.47;;
581;SDS011;277;50.074;8.436;2023-12-07T04:51:38;4.88;;;3.40;;
581;SDS011;277;50.074;8.436;2023-12-07T04:54:08;5.53;;;4.43;;
581;SDS011;277;50.074;8.436;2023-12-07T04:56:46;5.70;;;5.07;;
581;SDS011;277;50.074;8.436;2023-12-07T04:59:15;5.80;;;4.28;;
581;SDS011;277;50.074;8.436;2023-12-07T05:01:43;5.85;;;5.32;;
581;SDS011;277;50.074;8.436;2023-12-07T05:04:12;5.80;;;4.40;;
581;SDS011;277;50.074;8.436;2023-12-07T05:06:40;5.00;;;4.50;;
581;SDS011;277;50.074;8.436;2023-12-07T05:09:08;4.75;;;3.65;;
581;SDS011;277;50.074;8.436;2023-12-07T05:11:37;5.35;;;4.53;;
581;SDS011;277;50.074;8.436;2023-12-07T05:14:06;7.70;;;4.50;;
581;SDS011;277;50.074;8.436;2023-12-07T05:16:34;4.28;;;3.63;;
581;SDS011;277;50.074;8.436;2023-12-07T05:19:02;4.82;;;3.35;;
581;SDS011;277;50.074;8.436;2023-12-07T05:21:30;3.65;;;3.13;;
581;SDS011;277;50.074;8.436;2023-12-07T05:23:58;5.78;;;4.72;;
581;SDS011;277;50.074;8.436;2023-12-07T05:26:26;6.55;;;3.50;;
581;SDS011;277;50.074;8.436;2023-12-07T05:28:55;9.75;;;7.15;;
581;SDS011;277;50.074;8.436;2023-12-07T05:31:25;4.82;;;4.35;;
581;SDS011;277;50.074;8.436;2023-12-07T05:33:55;10.68;;;6.38;;
581;SDS011;277;50.074;8.436;2023-12-07T05:36:23;7.68;;;5.65;;
581;SDS011;277;50.074;8.436;2023-12-07T05:38:52;6.75;;;4.70;;
581;SDS011;277;50.074;8.436;2023-12-07T05:41:20;9.45;;;4.93;;
581;SDS011;277;50.074;8.436;2023-12-07T05:43:48;8.68;;;5.65;;
581;SDS011;277;50.074;8.436;2023-12-07T05:46:17;5.43;;;4.72;;
581;SDS011;277;50.074;8.436;2023-12-07T05:48:46;3.95;;;3.50;;
581;SDS011;277;50.074;8.436;2023-12-07T05:51:15;4.97;;;4.10;;
581;SDS011;277;50.074;8.436;2023-12-07T05:53:44;7.53;;;5.13;;
581;SDS011;277;50.074;8.436;2023-12-07T05:56:12;5.18;;;4.68;;
581;SDS011;277;50.074;8.436;2023-12-07T05:58:46;4.60;;;4.20;;
581;SDS011;277;50.074;8.436;2023-12-07T06:01:16;5.43;;;4.28;;
581;SDS011;277;50.074;8.436;2023-12-07T06:03:46;5.05;;;4.47;;
581;SDS011;277;50.074;8.436;2023-12-07T06:06:14;5.53;;;4.05;;
581;SDS011;277;50.074;8.436;2023-12-07T06:08:42;5.90;;;4.95;;
581;SDS011;277;50.074;8.436;2023-12-07T06:11:10;10.30;;;7.03;;
581;SDS011;277;50.074;8.436;2023-12-07T06:13:38;9.68;;;7.03;;
581;SDS011;277;50.074;8.436;2023-12-07T06:16:06;11.40;;;7.97;;
581;SDS011;277;50.074;8.436;2023-12-07T06:18:38;10.27;;;6.95;;
581;SDS011;277;50.074;8.436;2023-12-07T06:21:08;8.90;;;5.78;;
581;SDS011;277;50.074;8.436;2023-12-07T06:23:36;6.97;;;4.68;;
581;SDS011;277;50.074;8.436;2023-12-07T06:26:04;16.42;;;6.53;;
581;SDS011;277;50.074;8.436;2023-12-07T06:28:32;6.72;;;5.40;;
581;SDS011;277;50.074;8.436;2023-12-07T06:31:04;5.47;;;4.90;;
581;SDS011;277;50.074;8.436;2023-12-07T06:33:33;5.72;;;4.60;;
581;SDS011;277;50.074;8.436;2023-12-07T06:36:01;5.88;;;4.55;;
581;SDS011;277;50.074;8.436;2023-12-07T06:38:31;6.32;;;4.70;;
581;SDS011;277;50.074;8.436;2023-12-07T06:40:59;7.10;;;4.85;;
581;SDS011;277;50.074;8.436;2023-12-07T06:43:27;5.50;;;4.95;;
581;SDS011;277;50.074;8.436;2023-12-07T06:45:55;6.07;;;4.32;;
581;SDS011;277;50.074;8.436;2023-12-07T06:48:23;5.55;;;4.22;;
581;SDS011;277;50.074;8.436;2023-12-07T06:50:51;5.25;;;3.83;;
581;SDS011;277;50.074;8.436;2023-12-07T06:53:19;5.60;;;4.63;;
581;SDS011;277;50.074;8.436;2023-12-07T06:55:49;6.13;;;4.75;;
581;SDS011;277;50.074;8.436;2023-12-07T06:58:17;7.07;;;4.28;;
581;SDS011;277;50.074;8.436;2023-12-07T07:00:44;5.53;;;4.20;;
581;SDS011;277;50.074;8.436;2023-12-07T07:03:13;7.53;;;5.35;;
581;SDS011;277;50.074;8.436;2023-12-07T07:05:41;8.07;;;5.53;;
581;SDS011;277;50.074;8.436;2023-12-07T07:08:10;7.28;;;4.35;;
581;SDS011;277;50.074;8.436;2023-12-07T07:10:37;6.18;;;5.57;;
581;SDS011;277;50.074;8.436;2023-12-07T07:13:07;5.82;;;4.80;;
581;SDS011;277;50.074;8.436;2023-12-07T07:15:35;6.82;;;5.95;;
581;SDS011;277;50.074;8.436;2023-12-07T07:18:03;5.57;;;4.80;;
581;SDS011;277;50.074;8.436;2023-12-07T07:20:31;7.28;;;6.00;;
581;SDS011;277;50.074;8.436;2023-12-07T07:22:59;10.73;;;6.60;;
581;SDS011;277;50.074;8.436;2023-12-07T07:25:27;8.85;;;6.85;;
581;SDS011;277;50.074;8.436;2023-12-07T07:27:56;11.52;;;7.28;;
581;SDS011;277;50.074;8.436;2023-12-07T07:30:25;8.80;;;6.57;;
581;SDS011;277;50.074;8.436;2023-12-07T07:32:54;6.75;;;5.40;;
581;SDS011;277;50.074;8.436;2023-12-07T07:35:21;7.18;;;5.47;;
581;SDS011;277;50.074;8.436;2023-12-07T07:37:49;5.63;;;4.32;;
581;SDS011;277;50.074;8.436;2023-12-07T07:40:17;6.82;;;4.55;;
581;SDS011;277;50.074;8.436;2023-12-07T07:42:45;6.63;;;4.90;;
581;SDS011;277;50.074;8.436;2023-12-07T07:45:13;5.55;;;4.30;;
581;SDS011;277;50.074;8.436;2023-12-07T07:47:43;8.40;;;5.47;;
581;SDS011;277;50.074;8.436;2023-12-07T07:50:12;6.40;;;4.50;;
581;SDS011;277;50.074;8.436;2023-12-07T07:52:39;5.47;;;4.97;;
581;SDS011;277;50.074;8.436;2023-12-07T07:55:08;10.35;;;6.57;;
581;SDS011;277;50.074;8.436;2023-12-07T07:57:37;8.65;;;6.65;;
581;SDS011;277;50.074;8.436;2023-12-07T08:00:05;8.75;;;5.65;;
581;SDS011;277;50.074;8.436;2023-12-07T08:02:35;11.18;;;7.70;;
581;SDS011;277;50.074;8.436;2023-12-07T08:05:05;15.18;;;9.05;;
581;SDS011;277;50.074;8.436;2023-12-07T08:07:33;12.25;;;8.00;;
581;SDS011;277;50.074;8.436;2023-12-07T08:10:01;12.25;;;8.13;;
581;SDS011;277;50.074;8.436;2023-12-07T08:12:30;10.88;;;8.38;;
581;SDS011;277;50.074;8.436;2023-12-07T08:14:59;12.15;;;9.20;;
581;SDS011;277;50.074;8.436;2023-12-07T08:17:27;9.80;;;7.80;;
581;SDS011;277;50.074;8.436;2023-12-07T08:19:56;11.43;;;7.07;;
581;SDS011;277;50.074;8.436;2023-12-07T08:22:27;11.27;;;7.47;;
581;SDS011;277;50.074;8.436;2023-12-07T08:24:55;11.57;;;8.73;;
581;SDS011;277;50.074;8.436;2023-12-07T08:27:36;10.25;;;7.70;;
581;SDS011;277;50.074;8.436;2023-12-07T08:30:05;13.07;;;8.60;;
581;SDS011;277;50.074;8.436;2023-12-07T08:32:35;11.23;;;7.20;;
581;SDS011;277;50.074;8.436;2023-12-07T08:35:04;11.45;;;7.57;;
581;SDS011;277;50.074;8.436;2023-12-07T08:37:36;10.98;;;6.70;;
581;SDS011;277;50.074;8.436;2023-12-07T08:40:05;12.43;;;7.28;;
581;SDS011;277;50.074;8.436;2023-12-07T08:42:34;12.10;;;7.60;;
581;SDS011;277;50.074;8.436;2023-12-07T08:45:02;11.05;;;7.20;;
581;SDS011;277;50.074;8.436;2023-12-07T08:47:30;15.18;;;8.60;;
581;SDS011;277;50.074;8.436;2023-12-07T08:49:59;10.15;;;6.28;;
581;SDS011;277;50.074;8.436;2023-12-07T08:52:27;12.32;;;8.20;;
581;SDS011;277;50.074;8.436;2023-12-07T08:55:11;11.25;;;8.02;;
581;SDS011;277;50.074;8.436;2023-12-07T08:57:42;12.15;;;8.10;;
581;SDS011;277;50.074;8.436;2023-12-07T09:00:10;9.85;;;7.97;;
581;SDS011;277;50.074;8.436;2023-12-07T09:02:39;9.90;;;7.75;;
581;SDS011;277;50.074;8.436;2023-12-07T09:05:13;9.98;;;7.07;;
581;SDS011;277;50.074;8.436;2023-12-07T09:07:42;9.93;;;7.25;;
581;SDS011;277;50.074;8.436;2023-12-07T09:10:12;8.00;;;5.93;;
581;SDS011;277;50.074;8.436;2023-12-07T09:12:40;9.13;;;6.60;;
581;SDS011;277;50.074;8.436;2023-12-07T09:15:08;9.10;;;6.72;;
581;SDS011;277;50.074;8.436;2023-12-07T09:17:37;12.68;;;7.43;;
581;SDS011;277;50.074;8.436;2023-12-07T09:20:07;12.70;;;7.85;;
581;SDS011;277;50.074;8.436;2023-12-07T09:22:40;13.30;;;8.02;;
581;SDS011;277;50.074;8.436;2023-12-07T09:25:10;11.73;;;8.70;;
581;SDS011;277;50.074;8.436;2023-12-07T09:27:40;13.32;;;8.15;;
581;SDS011;277;50.074;8.436;2023-12-07T09:30:08;14.95;;;8.65;;
581;SDS011;277;50.074;8.436;2023-12-07T09:32:39;9.85;;;7.53;;
581;SDS011;277;50.074;8.436;2023-12-07T09:35:11;16.08;;;9.10;;
581;SDS011;277;50.074;8.436;2023-12-07T09:37:42;13.30;;;8.45;;
581;SDS011;277;50.074;8.436;2023-12-07T09:40:15;10.52;;;7.28;;
581;SDS011;277;50.074;8.436;2023-12-07T09:42:45;9.98;;;6.97;;
581;SDS011;277;50.074;8.436;2023-12-07T09:45:14;10.95;;;7.22;;
581;SDS011;277;50.074;8.436;2023-12-07T09:47:46;9.20;;;6.35;;
581;SDS011;277;50.074;8.436;2023-12-07T09:50:15;8.95;;;7.25;;
581;SDS011;277;50.074;8.436;2023-12-07T09:52:46;8.55;;;5.70;;
581;SDS011;277;50.074;8.436;2023-12-07T09:55:30;7.53;;;4.95;;
581;SDS011;277;50.074;8.436;2023-12-07T09:58:00;10.10;;;6.85;;
581;SDS011;277;50.074;8.436;2023-12-07T10:00:30;6.03;;;4.35;;
581;SDS011;277;50.074;8.436;2023-12-07T10:02:59;7.63;;;5.15;;
581;SDS011;277;50.074;8.436;2023-12-07T10:05:27;7.35;;;5.30;;
581;SDS011;277;50.074;8.436;2023-12-07T10:07:55;7.80;;;5.45;;
581;SDS011;277;50.074;8.436;2023-12-07T10:10:24;9.02;;;5.65;;
581;SDS011;277;50.074;8.436;2023-12-07T10:12:54;9.82;;;6.00;;
581;SDS011;277;50.074;8.436;2023-12-07T10:15:24;8.38;;;5.30;;
581;SDS011;277;50.074;8.436;2023-12-07T10:17:55;9.05;;;6.35;;
581;SDS011;277;50.074;8.436;2023-12-07T10:20:26;10.75;;;7.07;;
581;SDS011;277;50.074;8.436;2023-12-07T10:23:02;6.72;;;5.18;;
581;SDS011;277;50.074;8.436;2023-12-07T10:25:30;9.00;;;7.20;;
581;SDS011;277;50.074;8.436;2023-12-07T10:28:01;9.70;;;6.53;;
581;SDS011;277;50.074;8.436;2023-12-07T10:30:33;8.70;;;6.75;;
581;SDS011;277;50.074;8.436;2023-12-07T10:33:02;9.05;;;7.28;;
581;SDS011;277;50.074;8.436;2023-12-07T10:35:31;10.55;;;7.50;;
581;SDS011;277;50.074;8.436;2023-12-07T10:37:59;11.57;;;7.40;;
581;SDS011;277;50.074;8.436;2023-12-07T10:40:27;12.45;;;8.20;;
581;SDS011;277;50.074;8.436;2023-12-07T10:42:56;13.88;;;9.05;;
581;SDS011;277;50.074;8.436;2023-12-07T10:45:26;18.75;;;8.23;;
581;SDS011;277;50.074;8.436;2023-12-07T10:47:57;11.27;;;7.18;;
581;SDS011;277;50.074;8.436;2023-12-07T10:50:32;15.10;;;10.63;;
581;SDS011;277;50.074;8.436;2023-12-07T10:53:04;12.65;;;8.50;;
581;SDS011;277;50.074;8.436;2023-12-07T10:55:38;18.75;;;8.65;;
581;SDS011;277;50.074;8.436;2023-12-07T10:58:11;13.07;;;8.88;;
581;SDS011;277;50.074;8.436;2023-12-07T11:00:42;12.32;;;8.02;;
581;SDS011;277;50.074;8.436;2023-12-07T11:03:14;15.75;;;9.10;;
581;SDS011;277;50.074;8.436;2023-12-07T11:05:45;11.82;;;8.23;;
581;SDS011;277;50.074;8.436;2023-12-07T11:08:15;10.43;;;6.25;;
581;SDS011;277;50.074;8.436;2023-12-07T11:10:50;13.63;;;8.63;;
581;SDS011;277;50.074;8.436;2023-12-07T11:13:27;10.77;;;7.47;;
581;SDS011;277;50.074;8.436;2023-12-07T11:15:59;12.60;;;7.15;;
581;SDS011;277;50.074;8.436;2023-12-07T11:18:27;15.07;;;8.80;;
581;SDS011;277;50.074;8.436;2023-12-07T11:20:56;12.30;;;7.88;;
581;SDS011;277;50.074;8.436;2023-12-07T11:23:26;12.98;;;8.68;;
581;SDS011;277;50.074;8.436;2023-12-07T11:25:55;14.68;;;9.80;;
581;SDS011;277;50.074;8.436;2023-12-07T11:28:35;14.30;;;7.60;;
581;SDS011;277;50.074;8.436;2023-12-07T11:31:07;11.57;;;7.20;;
581;SDS011;277;50.074;8.436;2023-12-07T11:33:37;10.57;;;6.68;;
581;SDS011;277;50.074;8.436;2023-12-07T11:36:06;13.98;;;7.78;;
581;SDS011;277;50.074;8.436;2023-12-07T11:38:36;11.45;;;7.13;;
581;SDS011;277;50.074;8.436;2023-12-07T11:41:04;13.35;;;6.90;;
581;SDS011;277;50.074;8.436;2023-12-07T11:43:42;12.80;;;8.68;;
581;SDS011;277;50.074;8.436;2023-12-07T11:46:13;13.50;;;9.13;;
581;SDS011;277;50.074;8.436;2023-12-07T11:48:48;12.35;;;8.55;;
581;SDS011;277;50.074;8.436;2023-12-07T11:51:17;14.10;;;8.88;;
581;SDS011;277;50.074;8.436;2023-12-07T11:53:45;20.25;;;8.52;;
581;SDS011;277;50.074;8.436;2023-12-07T11:56:15;16.02;;;8.20;;
581;SDS011;277;50.074;8.436;2023-12-07T11:58:47;16.92;;;8.65;;
581;SDS011;277;50.074;8.436;2023-12-07T12:01:18;18.55;;;10.35;;
581;SDS011;277;50.074;8.436;2023-12-07T12:03:47;14.18;;;9.13;;
581;SDS011;277;50.074;8.436;2023-12-07T12:06:15;14.30;;;9.23;;
581;SDS011;277;50.074;8.436;2023-12-07T12:08:44;14.35;;;8.70;;
581;SDS011;277;50.074;8.436;2023-12-07T12:11:11;13.38;;;8.25;;
581;SDS011;277;50.074;8.436;2023-12-07T12:13:40;14.30;;;7.35;;
581;SDS011;277;50.074;8.436;2023-12-07T12:16:08;14.32;;;8.73;;
581;SDS011;277;50.074;8.436;2023-12-07T12:18:38;12.93;;;8.38;;
581;SDS011;277;50.074;8.436;2023-12-07T12:21:06;14.23;;;9.95;;
581;SDS011;277;50.074;8.436;2023-12-07T12:23:35;15.80;;;7.90;;
581;SDS011;277;50.074;8.436;2023-12-07T12:26:06;11.85;;;8.48;;
581;SDS011;277;50.074;8.436;2023-12-07T12:28:36;14.32;;;10.13;;
581;SDS011;277;50.074;8.436;2023-12-07T12:31:09;14.63;;;9.10;;
581;SDS011;277;50.074;8.436;2023-12-07T12:33:40;17.45;;;9.50;;
581;SDS011;277;50.074;8.436;2023-12-07T12:36:08;17.58;;;9.98;;
581;SDS011;277;50.074;8.436;2023-12-07T12:38:37;13.50;;;7.72;;
581;SDS011;277;50.074;8.436;2023-12-07T12:41:10;16.70;;;8.75;;
581;SDS011;277;50.074;8.436;2023-12-07T12:43:39;14.40;;;8.02;;
581;SDS011;277;50.074;8.436;2023-12-07T12:46:09;15.65;;;8.50;;
581;SDS011;277;50.074;8.436;2023-12-07T12:48:53;18.65;;;9.88;;
581;SDS011;277;50.074;8.436;2023-12-07T12:51:23;17.17;;;8.63;;
581;SDS011;277;50.074;8.436;2023-12-07T12:53:53;15.00;;;8.52;;
581;SDS011;277;50.074;8.436;2023-12-07T12:56:22;17.45;;;10.10;;
581;SDS011;277;50.074;8.436;2023-12-07T12:58:51;19.45;;;9.77;;
581;SDS011;277;50.074;8.436;2023-12-07T13:01:27;15.13;;;9.65;;
581;SDS011;277;50.074;8.436;2023-12-07T13:03:57;15.82;;;9.38;;
581;SDS011;277;50.074;8.436;2023-12-07T13:06:25;15.80;;;9.38;;
581;SDS011;277;50.074;8.436;2023-12-07T13:08:53;17.08;;;9.18;;
581;SDS011;277;50.074;8.436;2023-12-07T13:11:21;19.63;;;10.90;;
581;SDS011;277;50.074;8.436;2023-12-07T13:13:49;13.38;;;7.90;;
581;SDS011;277;50.074;8.436;2023-12-07T13:16:18;19.80;;;9.73;;
581;SDS011;277;50.074;8.436;2023-12-07T13:18:47;15.07;;;8.75;;
581;SDS011;277;50.074;8.436;2023-12-07T13:21:16;15.25;;;9.80;;
581;SDS011;277;50.074;8.436;2023-12-07T13:23:45;12.77;;;7.20;;
581;SDS011;277;50.074;8.436;2023-12-07T13:26:14;15.48;;;8.45;;
581;SDS011;277;50.074;8.436;2023-12-07T13:28:42;16.30;;;8.82;;
581;SDS011;277;50.074;8.436;2023-12-07T13:31:10;16.65;;;9.40;;
581;SDS011;277;50.074;8.436;2023-12-07T13:33:38;14.73;;;7.80;;
581;SDS011;277;50.074;8.436;2023-12-07T13:36:20;14.88;;;7.85;;
581;SDS011;277;50.074;8.436;2023-12-07T13:38:50;10.18;;;4.63;;
581;SDS011;277;50.074;8.436;2023-12-07T13:41:18;5.57;;;3.88;;
581;SDS011;277;50.074;8.436;2023-12-07T13:43:46;10.80;;;7.00;;
581;SDS011;277;50.074;8.436;2023-12-07T13:46:16;11.15;;;6.70;;
581;SDS011;277;50.074;8.436;2023-12-07T13:48:45;12.13;;;7.50;;
581;SDS011;277;50.074;8.436;2023-12-07T13:51:13;13.25;;;7.93;;
581;SDS011;277;50.074;8.436;2023-12-07T13:53:44;8.75;;;6.20;;
581;SDS011;277;50.074;8.436;2023-12-07T13:56:12;15.05;;;7.18;;
581;SDS011;277;50.074;8.436;2023-12-07T13:58:39;17.88;;;8.38;;
581;SDS011;277;50.074;8.436;2023-12-07T14:01:07;17.45;;;8.77;;
581;SDS011;277;50.074;8.436;2023-12-07T14:03:36;15.00;;;8.45;;
581;SDS011;277;50.074;8.436;2023-12-07T14:06:04;16.92;;;8.70;;
581;SDS011;277;50.074;8.436;2023-12-07T14:08:48;11.48;;;8.00;;
581;SDS011;277;50.074;8.436;2023-12-07T14:11:16;16.13;;;9.05;;
581;SDS011;277;50.074;8.436;2023-12-07T14:13:44;14.57;;;8.10;;
581;SDS011;277;50.074;8.436;2023-12-07T14:16:14;18.85;;;9.13;;
581;SDS011;277;50.074;8.436;2023-12-07T14:18:57;13.80;;;9.45;;
581;SDS011;277;50.074;8.436;2023-12-07T14:21:40;18.13;;;10.15;;
581;SDS011;277;50.074;8.436;2023-12-07T14:24:22;14.30;;;8.20;;
581;SDS011;277;50.074;8.436;2023-12-07T14:26:51;13.63;;;8.27;;
581;SDS011;277;50.074;8.436;2023-12-07T14:29:21;14.02;;;9.38;;
581;SDS011;277;50.074;8.436;2023-12-07T14:31:54;14.35;;;9.50;;
581;SDS011;277;50.074;8.436;2023-12-07T14:34:23;15.23;;;8.68;;
581;SDS011;277;50.074;8.436;2023-12-07T14:37:01;13.13;;;8.57;;
581;SDS011;277;50.074;8.436;2023-12-07T14:39:35;25.17;;;12.13;;
581;SDS011;277;50.074;8.436;2023-12-07T14:42:04;16.50;;;11.23;;
581;SDS011;277;50.074;8.436;2023-12-07T14:44:33;16.25;;;9.95;;
581;SDS011;277;50.074;8.436;2023-12-07T14:47:02;21.38;;;10.82;;
581;SDS011;277;50.074;8.436;2023-12-07T14:49:31;18.98;;;10.23;;
581;SDS011;277;50.074;8.436;2023-12-07T14:52:03;17.25;;;10.77;;
581;SDS011;277;50.074;8.436;2023-12-07T14:54:32;20.27;;;10.07;;
581;SDS011;277;50.074;8.436;2023-12-07T14:57:06;21.90;;;10.70;;
581;SDS011;277;50.074;8.436;2023-12-07T14:59:36;22.05;;;12.50;;
581;SDS011;277;50.074;8.436;2023-12-07T15:02:05;14.85;;;9.32;;
581;SDS011;277;50.074;8.436;2023-12-07T15:04:34;14.63;;;9.65;;
581;SDS011;277;50.074;8.436;2023-12-07T15:07:05;13.13;;;8.60;;
581;SDS011;277;50.074;8.436;2023-12-07T15:09:35;16.95;;;11.20;;
581;SDS011;277;50.074;8.436;2023-12-07T15:12:06;23.33;;;10.98;;
581;SDS011;277;50.074;8.436;2023-12-07T15:14:34;15.00;;;9.18;;
581;SDS011;277;50.074;8.436;2023-12-07T15:17:05;20.30;;;12.38;;
581;SDS011;277;50.074;8.436;2023-12-07T15:19:35;21.42;;;11.73;;
581;SDS011;277;50.074;8.436;2023-12-07T15:22:06;18.55;;;11.23;;
581;SDS011;277;50.074;8.436;2023-12-07T15:24:36;24.73;;;13.30;;
581;SDS011;277;50.074;8.436;2023-12-07T15:27:08;18.70;;;11.02;;
581;SDS011;277;50.074;8.436;2023-12-07T15:29:37;17.23;;;12.02;;
581;SDS011;277;50.074;8.436;2023-12-07T15:32:08;20.77;;;10.93;;
581;SDS011;277;50.074;8.436;2023-12-07T15:34:37;23.17;;;12.82;;
581;SDS011;277;50.074;8.436;2023-12-07T15:37:09;18.98;;;12.30;;
581;SDS011;277;50.074;8.436;2023-12-07T15:39:41;19.08;;;12.40;;
581;SDS011;277;50.074;8.436;2023-12-07T15:42:12;20.55;;;11.77;;
581;SDS011;277;50.074;8.436;2023-12-07T15:44:41;21.98;;;11.75;;
581;SDS011;277;50.074;8.436;2023-12-07T15:47:10;18.77;;;12.13;;
581;SDS011;277;50.074;8.436;2023-12-07T15:49:39;23.70;;;14.10;;
581;SDS011;277;50.074;8.436;2023-12-07T15:52:09;23.08;;;12.75;;
581;SDS011;277;50.074;8.436;2023-12-07T15:54:38;24.20;;;14.13;;